sensor_id;sensor_type;location;lat;lon;timestamp;P1;durP1;ratioP1;P2;durP2;ratioP2
25946;SDS011;13745;51.470;9.894;2023-03-01T05:59:19;14.65;;;7.72;;
25946;SDS011;13745;51.470;9.894;2023-03-01T06:02:05;12.23;;;7.95;;
25946;SDS011;13745;51.470;9.894;2023-03-01T06:04:50;15.48;;;7.95;;
25946;SDS011;13745;51.470;9.894;2023-03-01T06:07:36;15.65;;;8.32;;
25946;SDS011;13745;51.470;9.894;2023-03-01T06:10:22;14.05;;;8.27;;
25946;SDS011;13745;51.470;9.894;2023-03-01T06:13:07;17.00;;;8.70;;
25946;SDS011;13745;51.470;9.894;2023-03-01T06:15:52;16.40;;;9.35;;
25946;SDS011;13745;51.470;9.894;2023-03-01T06:18:37;15.52;;;8.32;;
25946;SDS011;13745;51.470;9.894;2023-03-01T06:21:23;15.25;;;8.73;;
25946;SDS011;13745;51.470;9.894;2023-03-01T06:24:09;16.67;;;8.93;;
25946;SDS011;13745;51.470;9.894;2023-03-01T06:26:54;18.92;;;9.38;;
25946;SDS011;13745;51.470;9.894;2023-03-01T06:29:40;18.17;;;9.02;;
25946;SDS011;13745;51.470;9.894;2023-03-01T06:32:24;17.15;;;8.82;;
25946;SDS011;13745;51.470;9.894;2023-03-01T06:35:10;20.00;;;9.90;;
25946;SDS011;13745;51.470;9.894;2023-03-01T06:37:56;16.42;;;9.38;;
25946;SDS011;13745;51.470;9.894;2023-03-01T06:40:44;17.88;;;9.32;;
25946;SDS011;13745;51.470;9.894;2023-03-01T06:43:30;18.02;;;9.93;;
25946;SDS011;13745;51.470;9.894;2023-03-01T06:46:15;15.80;;;9.18;;
25946;SDS011;13745;51.470;9.894;2023-03-01T06:49:00;19.23;;;10.05;;
25946;SDS011;13745;51.470;9.894;2023-03-01T06:51:48;19.58;;;9.98;;
25946;SDS011;13745;51.470;9.894;2023-03-01T06:54:33;16.90;;;9.05;;
25946;SDS011;13745;51.470;9.894;2023-03-01T06:57:19;18.38;;;9.48;;
25946;SDS011;13745;51.470;9.894;2023-03-01T07:00:05;16.63;;;9.13;;
25946;SDS011;13745;51.470;9.894;2023-03-01T07:02:51;17.58;;;9.63;;
25946;SDS011;13745;51.470;9.894;2023-03-01T07:05:37;16.15;;;8.82;;
25946;SDS011;13745;51.470;9.894;2023-03-01T07:08:22;15.13;;;9.20;;
25946;SDS011;13745;51.470;9.894;2023-03-01T07:11:07;17.13;;;9.80;;
25946;SDS011;13745;51.470;9.894;2023-03-01T07:13:53;19.08;;;10.10;;
25946;SDS011;13745;51.470;9.894;2023-03-01T07:16:39;19.33;;;10.05;;
25946;SDS011;13745;51.470;9.894;2023-03-01T07:19:24;19.35;;;10.35;;
25946;SDS011;13745;51.470;9.894;2023-03-01T07:22:10;20.60;;;10.95;;
25946;SDS011;13745;51.470;9.894;2023-03-01T07:24:55;17.13;;;10.65;;
25946;SDS011;13745;51.470;9.894;2023-03-01T07:27:40;22.25;;;10.38;;
25946;SDS011;13745;51.470;9.894;2023-03-01T07:30:26;17.33;;;9.90;;
25946;SDS011;13745;51.470;9.894;2023-03-01T07:33:12;18.67;;;10.73;;
25946;SDS011;13745;51.470;9.894;2023-03-01T07:35:57;18.33;;;10.60;;
25946;SDS011;13745;51.470;9.894;2023-03-01T07:38:42;18.95;;;11.65;;
25946;SDS011;13745;51.470;9.894;2023-03-01T07:44:12;20.75;;;9.93;;
25946;SDS011;13745;51.470;9.894;2023-03-01T07:46:59;18.88;;;10.32;;
25946;SDS011;13745;51.470;9.894;2023-03-01T07:49:45;17.40;;;10.65;;
25946;SDS011;13745;51.470;9.894;2023-03-01T07:52:30;18.52;;;10.50;;
25946;SDS011;13745;51.470;9.894;2023-03-01T07:55:16;16.50;;;9.77;;
25946;SDS011;13745;51.470;9.894;2023-03-01T07:58:01;23.98;;;11.07;;
25946;SDS011;13745;51.470;9.894;2023-03-01T08:00:46;18.60;;;9.80;;
25946;SDS011;13745;51.470;9.894;2023-03-01T08:03:32;19.02;;;10.18;;
25946;SDS011;13745;51.470;9.894;2023-03-01T08:06:18;19.75;;;10.82;;
25946;SDS011;13745;51.470;9.894;2023-03-01T08:09:03;18.33;;;10.50;;
25946;SDS011;13745;51.470;9.894;2023-03-01T08:11:48;22.60;;;11.18;;
25946;SDS011;13745;51.470;9.894;2023-03-01T08:14:33;19.98;;;11.23;;
25946;SDS011;13745;51.470;9.894;2023-03-01T08:17:18;17.98;;;10.65;;
25946;SDS011;13745;51.470;9.894;2023-03-01T08:20:05;21.55;;;12.43;;
25946;SDS011;13745;51.470;9.894;2023-03-01T08:22:51;20.75;;;11.23;;
25946;SDS011;13745;51.470;9.894;2023-03-01T08:31:36;18.77;;;8.70;;
25946;SDS011;13745;51.470;9.894;2023-03-01T08:34:23;17.23;;;9.65;;
25946;SDS011;13745;51.470;9.894;2023-03-01T08:37:10;18.85;;;9.50;;
25946;SDS011;13745;51.470;9.894;2023-03-01T08:39:55;15.23;;;9.25;;
25946;SDS011;13745;51.470;9.894;2023-03-01T08:42:40;14.52;;;9.00;;
25946;SDS011;13745;51.470;9.894;2023-03-01T08:45:26;14.25;;;8.85;;
25946;SDS011;13745;51.470;9.894;2023-03-01T08:48:10;13.45;;;8.60;;
25946;SDS011;13745;51.470;9.894;2023-03-01T08:50:56;17.65;;;9.15;;
25946;SDS011;13745;51.470;9.894;2023-03-01T08:53:42;13.95;;;8.25;;
25946;SDS011;13745;51.470;9.894;2023-03-01T08:56:28;11.25;;;7.20;;
25946;SDS011;13745;51.470;9.894;2023-03-01T08:59:14;13.32;;;8.02;;
25946;SDS011;13745;51.470;9.894;2023-03-01T09:02:00;10.48;;;7.00;;
25946;SDS011;13745;51.470;9.894;2023-03-01T09:04:45;15.35;;;7.00;;
25946;SDS011;13745;51.470;9.894;2023-03-01T09:07:30;10.93;;;5.78;;
25946;SDS011;13745;51.470;9.894;2023-03-01T09:10:17;8.50;;;5.97;;
25946;SDS011;13745;51.470;9.894;2023-03-01T09:13:02;9.60;;;7.22;;
25946;SDS011;13745;51.470;9.894;2023-03-01T09:15:47;9.13;;;6.00;;
25946;SDS011;13745;51.470;9.894;2023-03-01T09:18:32;8.43;;;6.03;;
25946;SDS011;13745;51.470;9.894;2023-03-01T09:21:18;9.73;;;6.72;;
25946;SDS011;13745;51.470;9.894;2023-03-01T09:24:05;8.00;;;6.63;;
25946;SDS011;13745;51.470;9.894;2023-03-01T09:26:53;11.57;;;7.53;;
25946;SDS011;13745;51.470;9.894;2023-03-01T09:29:40;8.18;;;6.30;;
25946;SDS011;13745;51.470;9.894;2023-03-01T09:32:25;11.15;;;7.47;;
25946;SDS011;13745;51.470;9.894;2023-03-01T09:35:10;9.45;;;6.97;;
25946;SDS011;13745;51.470;9.894;2023-03-01T09:37:55;9.68;;;7.00;;
25946;SDS011;13745;51.470;9.894;2023-03-01T09:51:55;7.75;;;6.03;;
25946;SDS011;13745;51.470;9.894;2023-03-01T09:54:42;10.07;;;6.18;;
25946;SDS011;13745;51.470;9.894;2023-03-01T09:57:28;12.20;;;7.72;;
25946;SDS011;13745;51.470;9.894;2023-03-01T10:00:32;12.32;;;8.15;;
25946;SDS011;13745;51.470;9.894;2023-03-01T10:03:23;10.00;;;7.57;;
25946;SDS011;13745;51.470;9.894;2023-03-01T10:06:11;11.98;;;6.72;;
25946;SDS011;13745;51.470;9.894;2023-03-01T10:09:00;9.68;;;6.60;;
25946;SDS011;13745;51.470;9.894;2023-03-01T10:11:49;7.70;;;6.70;;
25946;SDS011;13745;51.470;9.894;2023-03-01T10:14:38;7.45;;;6.38;;
25946;SDS011;13745;51.470;9.894;2023-03-01T10:17:30;9.00;;;6.60;;
25946;SDS011;13745;51.470;9.894;2023-03-01T10:20:20;12.70;;;7.07;;
25946;SDS011;13745;51.470;9.894;2023-03-01T10:23:07;7.65;;;5.75;;
25946;SDS011;13745;51.470;9.894;2023-03-01T10:26:03;8.38;;;6.53;;
25946;SDS011;13745;51.470;9.894;2023-03-01T10:28:59;8.05;;;6.03;;
25946;SDS011;13745;51.470;9.894;2023-03-01T10:31:48;7.90;;;6.68;;
25946;SDS011;13745;51.470;9.894;2023-03-01T10:34:36;6.05;;;5.45;;
25946;SDS011;13745;51.470;9.894;2023-03-01T10:37:21;7.82;;;5.90;;
25946;SDS011;13745;51.470;9.894;2023-03-01T10:40:08;6.53;;;5.93;;
25946;SDS011;13745;51.470;9.894;2023-03-01T10:42:57;8.23;;;6.00;;
25946;SDS011;13745;51.470;9.894;2023-03-01T10:45:43;6.18;;;5.57;;
25946;SDS011;13745;51.470;9.894;2023-03-01T10:48:28;6.43;;;5.78;;
25946;SDS011;13745;51.470;9.894;2023-03-01T10:51:16;7.78;;;6.30;;
25946;SDS011;13745;51.470;9.894;2023-03-01T10:54:03;6.30;;;5.70;;
25946;SDS011;13745;51.470;9.894;2023-03-01T10:56:51;6.50;;;5.85;;
25946;SDS011;13745;51.470;9.894;2023-03-01T10:59:39;6.80;;;6.10;;
25946;SDS011;13745;51.470;9.894;2023-03-01T11:02:25;6.70;;;6.10;;
25946;SDS011;13745;51.470;9.894;2023-03-01T11:05:16;6.10;;;5.50;;
25946;SDS011;13745;51.470;9.894;2023-03-01T11:08:05;6.22;;;5.68;;
25946;SDS011;13745;51.470;9.894;2023-03-01T11:10:50;6.85;;;5.95;;
25946;SDS011;13745;51.470;9.894;2023-03-01T11:13:35;6.22;;;5.63;;
25946;SDS011;13745;51.470;9.894;2023-03-01T11:16:24;6.28;;;5.38;;
25946;SDS011;13745;51.470;9.894;2023-03-01T11:19:14;6.82;;;4.93;;
25946;SDS011;13745;51.470;9.894;2023-03-01T11:22:04;5.95;;;5.38;;
25946;SDS011;13745;51.470;9.894;2023-03-01T11:24:56;5.30;;;4.80;;
25946;SDS011;13745;51.470;9.894;2023-03-01T11:27:43;5.93;;;5.32;;
25946;SDS011;13745;51.470;9.894;2023-03-01T11:30:30;6.30;;;5.60;;
25946;SDS011;13745;51.470;9.894;2023-03-01T11:33:23;5.88;;;5.35;;
25946;SDS011;13745;51.470;9.894;2023-03-01T11:36:19;5.95;;;5.28;;
25946;SDS011;13745;51.470;9.894;2023-03-01T11:39:16;6.47;;;5.63;;
25946;SDS011;13745;51.470;9.894;2023-03-01T11:42:11;5.82;;;5.32;;
25946;SDS011;13745;51.470;9.894;2023-03-01T11:44:59;5.35;;;4.80;;
25946;SDS011;13745;51.470;9.894;2023-03-01T11:47:54;6.30;;;4.50;;
25946;SDS011;13745;51.470;9.894;2023-03-01T11:50:47;5.93;;;5.32;;
25946;SDS011;13745;51.470;9.894;2023-03-01T11:53:36;9.25;;;5.07;;
25946;SDS011;13745;51.470;9.894;2023-03-01T11:56:38;6.15;;;5.13;;
25946;SDS011;13745;51.470;9.894;2023-03-01T11:59:36;5.18;;;4.78;;
25946;SDS011;13745;51.470;9.894;2023-03-01T12:02:38;5.15;;;4.75;;
25946;SDS011;13745;51.470;9.894;2023-03-01T12:05:39;5.65;;;5.15;;
25946;SDS011;13745;51.470;9.894;2023-03-01T12:08:49;5.18;;;4.68;;
25946;SDS011;13745;51.470;9.894;2023-03-01T12:11:54;5.25;;;4.72;;
25946;SDS011;13745;51.470;9.894;2023-03-01T12:14:57;5.07;;;4.68;;
25946;SDS011;13745;51.470;9.894;2023-03-01T12:17:58;6.15;;;5.55;;
25946;SDS011;13745;51.470;9.894;2023-03-01T12:20:58;4.65;;;4.25;;
25946;SDS011;13745;51.470;9.894;2023-03-01T12:24:02;5.03;;;4.55;;
25946;SDS011;13745;51.470;9.894;2023-03-01T12:27:07;4.47;;;4.13;;
25946;SDS011;13745;51.470;9.894;2023-03-01T12:30:09;4.85;;;4.35;;
25946;SDS011;13745;51.470;9.894;2023-03-01T12:33:11;6.45;;;4.65;;
25946;SDS011;13745;51.470;9.894;2023-03-01T12:39:38;5.63;;;4.68;;
25946;SDS011;13745;51.470;9.894;2023-03-01T12:42:35;4.07;;;3.78;;
25946;SDS011;13745;51.470;9.894;2023-03-01T12:48:51;5.70;;;4.65;;
25946;SDS011;13745;51.470;9.894;2023-03-01T12:51:50;5.05;;;4.65;;
25946;SDS011;13745;51.470;9.894;2023-03-01T12:54:38;4.93;;;4.43;;
25946;SDS011;13745;51.470;9.894;2023-03-01T12:57:25;5.60;;;5.10;;
25946;SDS011;13745;51.470;9.894;2023-03-01T13:00:22;5.10;;;4.70;;
25946;SDS011;13745;51.470;9.894;2023-03-01T13:03:18;6.28;;;5.45;;
25946;SDS011;13745;51.470;9.894;2023-03-01T13:06:09;6.68;;;5.40;;
25946;SDS011;13745;51.470;9.894;2023-03-01T13:09:01;5.57;;;5.07;;
25946;SDS011;13745;51.470;9.894;2023-03-01T13:11:56;5.22;;;4.72;;
25946;SDS011;13745;51.470;9.894;2023-03-01T13:14:45;5.78;;;5.22;;
25946;SDS011;13745;51.470;9.894;2023-03-01T13:17:32;5.78;;;5.28;;
25946;SDS011;13745;51.470;9.894;2023-03-01T13:20:29;5.60;;;5.00;;
25946;SDS011;13745;51.470;9.894;2023-03-01T13:23:24;4.95;;;4.53;;
25946;SDS011;13745;51.470;9.894;2023-03-01T13:26:12;6.00;;;5.40;;
25946;SDS011;13745;51.470;9.894;2023-03-01T13:28:58;5.72;;;5.20;;
25946;SDS011;13745;51.470;9.894;2023-03-01T13:34:53;7.15;;;4.97;;
25946;SDS011;13745;51.470;9.894;2023-03-01T13:37:41;5.53;;;5.03;;
25946;SDS011;13745;51.470;9.894;2023-03-01T13:43:43;5.47;;;4.97;;
25946;SDS011;13745;51.470;9.894;2023-03-01T13:46:31;6.07;;;5.07;;
25946;SDS011;13745;51.470;9.894;2023-03-01T13:49:19;6.82;;;5.10;;
25946;SDS011;13745;51.470;9.894;2023-03-01T13:52:06;6.53;;;4.93;;
25946;SDS011;13745;51.470;9.894;2023-03-01T13:54:53;8.00;;;5.07;;
25946;SDS011;13745;51.470;9.894;2023-03-01T13:57:38;6.40;;;5.50;;
25946;SDS011;13745;51.470;9.894;2023-03-01T14:00:25;6.22;;;5.63;;
25946;SDS011;13745;51.470;9.894;2023-03-01T14:03:13;6.00;;;5.40;;
25946;SDS011;13745;51.470;9.894;2023-03-01T14:06:01;6.25;;;5.65;;
25946;SDS011;13745;51.470;9.894;2023-03-01T14:08:50;9.77;;;5.90;;
25946;SDS011;13745;51.470;9.894;2023-03-01T14:11:52;6.40;;;5.50;;
25946;SDS011;13745;51.470;9.894;2023-03-01T14:14:52;8.18;;;5.90;;
25946;SDS011;13745;51.470;9.894;2023-03-01T14:17:44;6.13;;;5.53;;
25946;SDS011;13745;51.470;9.894;2023-03-01T14:20:38;6.10;;;5.30;;
25946;SDS011;13745;51.470;9.894;2023-03-01T14:26:11;5.90;;;5.30;;
25946;SDS011;13745;51.470;9.894;2023-03-01T14:28:57;7.82;;;4.63;;
25946;SDS011;13745;51.470;9.894;2023-03-01T14:31:42;6.70;;;5.35;;
25946;SDS011;13745;51.470;9.894;2023-03-01T14:34:27;6.60;;;4.68;;
25946;SDS011;13745;51.470;9.894;2023-03-01T14:37:20;6.28;;;4.55;;
25946;SDS011;13745;51.470;9.894;2023-03-01T14:45:55;5.70;;;5.10;;
25946;SDS011;13745;51.470;9.894;2023-03-01T14:48:40;7.65;;;5.53;;
25946;SDS011;13745;51.470;9.894;2023-03-01T14:51:25;6.53;;;5.05;;
25946;SDS011;13745;51.470;9.894;2023-03-01T14:54:18;6.03;;;4.30;;
25946;SDS011;13745;51.470;9.894;2023-03-01T14:57:12;8.57;;;4.60;;
25946;SDS011;13745;51.470;9.894;2023-03-01T14:59:59;6.93;;;4.85;;
25946;SDS011;13745;51.470;9.894;2023-03-01T15:02:50;7.95;;;4.53;;
25946;SDS011;13745;51.470;9.894;2023-03-01T15:05:37;5.68;;;4.38;;
25946;SDS011;13745;51.470;9.894;2023-03-01T15:08:24;7.05;;;4.85;;
25946;SDS011;13745;51.470;9.894;2023-03-01T15:11:17;7.15;;;5.57;;
25946;SDS011;13745;51.470;9.894;2023-03-01T15:17:24;6.60;;;4.70;;
25946;SDS011;13745;51.470;9.894;2023-03-01T15:31:28;7.72;;;5.40;;
25946;SDS011;13745;51.470;9.894;2023-03-01T15:34:21;8.30;;;5.90;;
25946;SDS011;13745;51.470;9.894;2023-03-01T15:37:35;11.88;;;6.32;;
25946;SDS011;13745;51.470;9.894;2023-03-01T15:40:29;8.80;;;4.78;;
25946;SDS011;13745;51.470;9.894;2023-03-01T15:46:24;7.57;;;4.35;;
25946;SDS011;13745;51.470;9.894;2023-03-01T15:49:20;6.80;;;4.82;;
25946;SDS011;13745;51.470;9.894;2023-03-01T15:52:22;6.40;;;4.55;;
25946;SDS011;13745;51.470;9.894;2023-03-01T15:55:15;9.18;;;5.72;;
25946;SDS011;13745;51.470;9.894;2023-03-01T16:06:20;5.82;;;3.22;;
25946;SDS011;13745;51.470;9.894;2023-03-01T16:09:06;3.92;;;3.20;;
25946;SDS011;13745;51.470;9.894;2023-03-01T16:11:52;4.40;;;3.28;;
25946;SDS011;13745;51.470;9.894;2023-03-01T16:14:38;4.43;;;3.00;;
25946;SDS011;13745;51.470;9.894;2023-03-01T16:17:23;3.90;;;3.00;;
25946;SDS011;13745;51.470;9.894;2023-03-01T16:20:09;5.25;;;3.40;;
25946;SDS011;13745;51.470;9.894;2023-03-01T16:22:57;5.43;;;3.08;;
25946;SDS011;13745;51.470;9.894;2023-03-01T16:25:44;4.18;;;3.10;;
25946;SDS011;13745;51.470;9.894;2023-03-01T16:28:30;5.65;;;3.28;;
25946;SDS011;13745;51.470;9.894;2023-03-01T16:31:16;4.25;;;3.03;;
25946;SDS011;13745;51.470;9.894;2023-03-01T16:34:03;7.70;;;2.92;;
25946;SDS011;13745;51.470;9.894;2023-03-01T16:36:48;4.47;;;3.17;;
25946;SDS011;13745;51.470;9.894;2023-03-01T16:39:33;5.07;;;3.00;;
25946;SDS011;13745;51.470;9.894;2023-03-01T16:42:20;6.50;;;3.60;;
25946;SDS011;13745;51.470;9.894;2023-03-01T16:45:05;7.15;;;3.65;;
25946;SDS011;13745;51.470;9.894;2023-03-01T16:47:52;5.93;;;3.38;;
25946;SDS011;13745;51.470;9.894;2023-03-01T16:50:38;5.30;;;2.97;;
25946;SDS011;13745;51.470;9.894;2023-03-01T16:53:23;4.15;;;2.97;;
25946;SDS011;13745;51.470;9.894;2023-03-01T16:56:09;6.00;;;3.83;;
25946;SDS011;13745;51.470;9.894;2023-03-01T16:58:58;5.75;;;3.78;;
25946;SDS011;13745;51.470;9.894;2023-03-01T17:01:43;5.78;;;3.83;;
25946;SDS011;13745;51.470;9.894;2023-03-01T17:04:28;6.38;;;3.75;;
25946;SDS011;13745;51.470;9.894;2023-03-01T17:07:13;5.43;;;3.88;;
25946;SDS011;13745;51.470;9.894;2023-03-01T17:09:58;4.13;;;3.03;;
25946;SDS011;13745;51.470;9.894;2023-03-01T17:12:43;5.90;;;3.25;;
25946;SDS011;13745;51.470;9.894;2023-03-01T17:15:29;4.25;;;3.03;;
25946;SDS011;13745;51.470;9.894;2023-03-01T17:18:15;4.30;;;3.10;;
25946;SDS011;13745;51.470;9.894;2023-03-01T17:21:00;5.53;;;3.15;;
25946;SDS011;13745;51.470;9.894;2023-03-01T17:23:46;6.13;;;3.08;;
25946;SDS011;13745;51.470;9.894;2023-03-01T17:26:32;4.65;;;3.40;;
25946;SDS011;13745;51.470;9.894;2023-03-01T17:29:17;5.18;;;3.53;;
25946;SDS011;13745;51.470;9.894;2023-03-01T17:32:04;4.40;;;3.03;;
25946;SDS011;13745;51.470;9.894;2023-03-01T17:34:49;8.13;;;4.10;;
25946;SDS011;13745;51.470;9.894;2023-03-01T17:37:35;5.63;;;3.60;;
25946;SDS011;13745;51.470;9.894;2023-03-01T17:40:22;7.05;;;3.50;;
25946;SDS011;13745;51.470;9.894;2023-03-01T17:43:07;9.98;;;4.57;;
25946;SDS011;13745;51.470;9.894;2023-03-01T17:45:52;5.07;;;3.47;;
25946;SDS011;13745;51.470;9.894;2023-03-01T17:48:39;6.95;;;4.07;;
25946;SDS011;13745;51.470;9.894;2023-03-01T17:51:24;6.35;;;4.07;;
25946;SDS011;13745;51.470;9.894;2023-03-01T17:54:09;6.45;;;4.10;;
25946;SDS011;13745;51.470;9.894;2023-03-01T17:56:54;8.18;;;4.82;;
25946;SDS011;13745;51.470;9.894;2023-03-01T17:59:41;6.63;;;4.55;;
25946;SDS011;13745;51.470;9.894;2023-03-01T18:02:26;7.78;;;4.68;;
25946;SDS011;13745;51.470;9.894;2023-03-01T18:05:13;6.60;;;3.92;;
25946;SDS011;13745;51.470;9.894;2023-03-01T18:07:59;8.93;;;4.95;;
25946;SDS011;13745;51.470;9.894;2023-03-01T18:10:44;9.85;;;4.72;;
25946;SDS011;13745;51.470;9.894;2023-03-01T18:13:29;9.32;;;5.60;;
25946;SDS011;13745;51.470;9.894;2023-03-01T18:16:15;7.85;;;5.05;;
25946;SDS011;13745;51.470;9.894;2023-03-01T18:19:01;8.50;;;5.20;;
25946;SDS011;13745;51.470;9.894;2023-03-01T18:21:48;13.20;;;5.72;;
25946;SDS011;13745;51.470;9.894;2023-03-01T18:24:33;10.43;;;6.45;;
25946;SDS011;13745;51.470;9.894;2023-03-01T18:27:18;9.20;;;6.07;;
25946;SDS011;13745;51.470;9.894;2023-03-01T18:30:03;10.50;;;6.50;;
25946;SDS011;13745;51.470;9.894;2023-03-01T18:32:49;10.15;;;5.95;;
25946;SDS011;13745;51.470;9.894;2023-03-01T18:35:38;9.55;;;5.88;;
25946;SDS011;13745;51.470;9.894;2023-03-01T18:38:25;10.30;;;6.60;;
25946;SDS011;13745;51.470;9.894;2023-03-01T18:41:11;13.60;;;6.30;;
25946;SDS011;13745;51.470;9.894;2023-03-01T18:43:56;10.50;;;5.95;;
25946;SDS011;13745;51.470;9.894;2023-03-01T18:46:41;13.13;;;6.18;;
25946;SDS011;13745;51.470;9.894;2023-03-01T18:49:28;10.02;;;5.72;;
25946;SDS011;13745;51.470;9.894;2023-03-01T18:52:13;9.55;;;5.07;;
25946;SDS011;13745;51.470;9.894;2023-03-01T18:54:59;10.13;;;5.50;;
25946;SDS011;13745;51.470;9.894;2023-03-01T18:57:45;10.88;;;5.65;;
25946;SDS011;13745;51.470;9.894;2023-03-01T19:00:30;10.48;;;6.05;;
25946;SDS011;13745;51.470;9.894;2023-03-01T19:03:15;9.73;;;6.03;;
25946;SDS011;13745;51.470;9.894;2023-03-01T19:06:00;9.98;;;5.50;;
25946;SDS011;13745;51.470;9.894;2023-03-01T19:08:45;20.58;;;8.13;;
25946;SDS011;13745;51.470;9.894;2023-03-01T19:11:33;9.50;;;5.80;;
25946;SDS011;13745;51.470;9.894;2023-03-01T19:14:18;8.13;;;5.10;;
25946;SDS011;13745;51.470;9.894;2023-03-01T19:17:03;9.00;;;5.32;;
25946;SDS011;13745;51.470;9.894;2023-03-01T19:19:48;9.38;;;5.13;;
25946;SDS011;13745;51.470;9.894;2023-03-01T19:22:34;13.65;;;5.70;;
25946;SDS011;13745;51.470;9.894;2023-03-01T19:25:19;10.13;;;5.18;;
25946;SDS011;13745;51.470;9.894;2023-03-01T19:28:05;11.35;;;5.45;;
25946;SDS011;13745;51.470;9.894;2023-03-01T19:30:50;9.77;;;5.93;;
25946;SDS011;13745;51.470;9.894;2023-03-01T19:33:35;10.25;;;5.78;;
25946;SDS011;13745;51.470;9.894;2023-03-01T19:36:22;10.00;;;5.95;;
25946;SDS011;13745;51.470;9.894;2023-03-01T19:39:15;9.18;;;5.53;;
25946;SDS011;13745;51.470;9.894;2023-03-01T19:42:00;9.35;;;5.50;;
25946;SDS011;13745;51.470;9.894;2023-03-01T19:44:46;9.65;;;5.78;;
25946;SDS011;13745;51.470;9.894;2023-03-01T19:47:32;8.13;;;5.32;;
25946;SDS011;13745;51.470;9.894;2023-03-01T19:50:17;11.45;;;5.75;;
25946;SDS011;13745;51.470;9.894;2023-03-01T19:53:02;9.07;;;5.45;;
25946;SDS011;13745;51.470;9.894;2023-03-01T19:55:47;9.70;;;5.30;;
25946;SDS011;13745;51.470;9.894;2023-03-01T19:58:36;10.43;;;5.97;;
25946;SDS011;13745;51.470;9.894;2023-03-01T20:01:23;9.50;;;5.25;;
25946;SDS011;13745;51.470;9.894;2023-03-01T20:04:11;11.02;;;5.97;;
25946;SDS011;13745;51.470;9.894;2023-03-01T20:06:56;12.25;;;5.60;;
25946;SDS011;13745;51.470;9.894;2023-03-01T20:09:41;9.65;;;6.22;;
25946;SDS011;13745;51.470;9.894;2023-03-01T20:12:26;10.60;;;6.40;;
25946;SDS011;13745;51.470;9.894;2023-03-01T20:15:12;9.52;;;6.07;;
25946;SDS011;13745;51.470;9.894;2023-03-01T20:17:58;14.23;;;7.22;;
25946;SDS011;13745;51.470;9.894;2023-03-01T20:20:46;11.35;;;6.40;;
25946;SDS011;13745;51.470;9.894;2023-03-01T20:23:32;11.38;;;6.03;;
25946;SDS011;13745;51.470;9.894;2023-03-01T20:26:17;10.18;;;6.47;;
25946;SDS011;13745;51.470;9.894;2023-03-01T20:29:03;10.63;;;6.25;;
25946;SDS011;13745;51.470;9.894;2023-03-01T20:31:50;11.30;;;5.97;;
25946;SDS011;13745;51.470;9.894;2023-03-01T20:34:37;13.15;;;6.45;;
25946;SDS011;13745;51.470;9.894;2023-03-01T20:37:22;12.95;;;6.47;;
25946;SDS011;13745;51.470;9.894;2023-03-01T20:40:08;11.68;;;6.47;;
25946;SDS011;13745;51.470;9.894;2023-03-01T20:42:54;11.50;;;6.45;;
25946;SDS011;13745;51.470;9.894;2023-03-01T20:45:40;18.45;;;8.82;;
25946;SDS011;13745;51.470;9.894;2023-03-01T20:48:25;13.95;;;6.88;;
25946;SDS011;13745;51.470;9.894;2023-03-01T20:51:11;13.27;;;6.22;;
25946;SDS011;13745;51.470;9.894;2023-03-01T20:53:57;13.93;;;6.43;;
25946;SDS011;13745;51.470;9.894;2023-03-01T20:56:42;12.20;;;6.75;;
25946;SDS011;13745;51.470;9.894;2023-03-01T20:59:27;9.40;;;5.63;;
25946;SDS011;13745;51.470;9.894;2023-03-01T21:02:12;9.85;;;5.93;;
25946;SDS011;13745;51.470;9.894;2023-03-01T21:04:57;11.50;;;7.10;;
25946;SDS011;13745;51.470;9.894;2023-03-01T21:07:43;11.00;;;6.50;;
25946;SDS011;13745;51.470;9.894;2023-03-01T21:10:29;12.00;;;6.35;;
25946;SDS011;13745;51.470;9.894;2023-03-01T21:13:16;12.57;;;7.03;;
25946;SDS011;13745;51.470;9.894;2023-03-01T21:16:02;18.33;;;7.40;;
25946;SDS011;13745;51.470;9.894;2023-03-01T21:18:50;12.60;;;7.43;;
25946;SDS011;13745;51.470;9.894;2023-03-01T21:21:34;12.60;;;8.10;;
25946;SDS011;13745;51.470;9.894;2023-03-01T21:24:21;10.38;;;6.97;;
25946;SDS011;13745;51.470;9.894;2023-03-01T21:27:06;17.92;;;7.80;;
25946;SDS011;13745;51.470;9.894;2023-03-01T21:29:52;14.02;;;8.40;;
25946;SDS011;13745;51.470;9.894;2023-03-01T21:32:37;16.88;;;8.27;;
25946;SDS011;13745;51.470;9.894;2023-03-01T21:35:21;14.68;;;8.13;;
25946;SDS011;13745;51.470;9.894;2023-03-01T21:38:07;19.70;;;7.95;;
25946;SDS011;13745;51.470;9.894;2023-03-01T21:40:53;14.75;;;8.05;;
25946;SDS011;13745;51.470;9.894;2023-03-01T21:43:39;17.55;;;9.02;;
25946;SDS011;13745;51.470;9.894;2023-03-01T21:46:26;18.63;;;9.90;;
25946;SDS011;13745;51.470;9.894;2023-03-01T21:49:13;16.42;;;9.07;;
25946;SDS011;13745;51.470;9.894;2023-03-01T21:51:59;12.93;;;7.72;;
25946;SDS011;13745;51.470;9.894;2023-03-01T21:54:44;18.13;;;9.85;;
25946;SDS011;13745;51.470;9.894;2023-03-01T21:57:30;14.77;;;8.70;;
25946;SDS011;13745;51.470;9.894;2023-03-01T22:00:16;13.73;;;7.50;;
25946;SDS011;13745;51.470;9.894;2023-03-01T22:03:06;18.42;;;8.75;;
25946;SDS011;13745;51.470;9.894;2023-03-01T22:05:54;15.63;;;7.65;;
25946;SDS011;13745;51.470;9.894;2023-03-01T22:08:41;15.90;;;8.13;;
25946;SDS011;13745;51.470;9.894;2023-03-01T22:11:26;15.07;;;8.50;;
25946;SDS011;13745;51.470;9.894;2023-03-01T22:14:13;14.00;;;8.00;;
25946;SDS011;13745;51.470;9.894;2023-03-01T22:16:58;13.00;;;7.50;;
25946;SDS011;13745;51.470;9.894;2023-03-01T22:19:43;13.52;;;7.07;;
25946;SDS011;13745;51.470;9.894;2023-03-01T22:22:29;11.52;;;6.78;;
25946;SDS011;13745;51.470;9.894;2023-03-01T22:25:14;10.63;;;7.20;;
25946;SDS011;13745;51.470;9.894;2023-03-01T22:28:00;11.90;;;7.00;;
25946;SDS011;13745;51.470;9.894;2023-03-01T22:30:46;18.48;;;10.43;;
25946;SDS011;13745;51.470;9.894;2023-03-01T22:33:31;16.25;;;8.45;;
25946;SDS011;13745;51.470;9.894;2023-03-01T22:36:16;14.05;;;7.88;;
25946;SDS011;13745;51.470;9.894;2023-03-01T22:39:03;13.73;;;7.32;;
25946;SDS011;13745;51.470;9.894;2023-03-01T22:41:48;17.92;;;8.40;;
25946;SDS011;13745;51.470;9.894;2023-03-01T22:44:34;17.10;;;8.70;;
25946;SDS011;13745;51.470;9.894;2023-03-01T22:47:20;15.40;;;8.27;;
25946;SDS011;13745;51.470;9.894;2023-03-01T22:50:06;13.38;;;7.30;;
25946;SDS011;13745;51.470;9.894;2023-03-01T22:52:52;12.20;;;6.30;;
25946;SDS011;13745;51.470;9.894;2023-03-01T22:55:37;13.23;;;5.90;;
25946;SDS011;13745;51.470;9.894;2023-03-01T22:58:23;10.80;;;6.75;;
25946;SDS011;13745;51.470;9.894;2023-03-01T23:01:09;12.45;;;7.18;;
25946;SDS011;13745;51.470;9.894;2023-03-01T23:03:56;12.52;;;6.90;;
25946;SDS011;13745;51.470;9.894;2023-03-01T23:06:42;15.63;;;7.95;;
25946;SDS011;13745;51.470;9.894;2023-03-01T23:09:34;14.68;;;7.75;;
25946;SDS011;13745;51.470;9.894;2023-03-01T23:12:19;15.13;;;7.32;;
25946;SDS011;13745;51.470;9.894;2023-03-01T23:15:05;13.30;;;6.68;;
25946;SDS011;13745;51.470;9.894;2023-03-01T23:17:51;13.32;;;6.80;;
25946;SDS011;13745;51.470;9.894;2023-03-01T23:20:37;17.42;;;6.78;;
25946;SDS011;13745;51.470;9.894;2023-03-01T23:23:23;14.85;;;6.97;;
25946;SDS011;13745;51.470;9.894;2023-03-01T23:26:08;11.50;;;6.60;;
25946;SDS011;13745;51.470;9.894;2023-03-01T23:28:54;11.90;;;6.43;;
25946;SDS011;13745;51.470;9.894;2023-03-01T23:31:39;14.63;;;6.57;;
25946;SDS011;13745;51.470;9.894;2023-03-01T23:34:24;11.95;;;6.20;;
25946;SDS011;13745;51.470;9.894;2023-03-01T23:37:11;9.77;;;5.90;;
25946;SDS011;13745;51.470;9.894;2023-03-01T23:39:56;10.73;;;6.43;;
25946;SDS011;13745;51.470;9.894;2023-03-01T23:42:41;11.98;;;6.22;;
25946;SDS011;13745;51.470;9.894;2023-03-01T23:45:26;10.50;;;6.00;;
25946;SDS011;13745;51.470;9.894;2023-03-01T23:48:12;8.48;;;5.60;;